Dades meteomassalio
Diari Summary for Setembre 10, 2017 Units:  Metric    English   Both
« Previous Day
Next Day »
Diari Semanal Mensual Anual Personalitzat
  Maxima: Minima: Mijana:
Temperatura: 22.8 °C 12.8 °C 17.6 °C
Rosada: 10.7 °C 7.1 °C 8.5 °C
Humitat: 70 % 41 % 56 %
Velocitat del vent: 70.3 km/h 0.0 km/h 38.3 km/h
Racha vent: 70.3 km/h - -
Vent:- - SW
Pressio: 1015.8 hPa 1011.1 hPa -
Pluja: 0.0 mm    
Historical Graphs
 
 
Tabular Data for Setembre 10, 2017
Time Temperature Dew Point Pressure Wind Wind Speed Wind Gust Humidity Rainfall Rate (Hourly) solar Conditions
00:04 15.6 °C 7.8 °C 1011.7 hPa WSW 35.4 km/h 35.4 km/h 60 % 0.0 mm 0.0 W/m2 RA
00:09 15.0 °C 7.3 °C 1011.7 hPa SSW 29.6 km/h 29.6 km/h 60 % 0.0 mm 0.0 W/m2 CLR
00:14 15.0 °C 7.6 °C 1011.7 hPa SSW 24.1 km/h 24.1 km/h 61 % 0.0 mm 0.0 W/m2 CLR
00:19 15.0 °C 7.6 °C 1011.7 hPa SW 25.9 km/h 25.9 km/h 61 % 0.0 mm 0.0 W/m2 CLR
00:24 15.0 °C 7.8 °C 1012.1 hPa SSW 24.1 km/h 24.1 km/h 62 % 0.0 mm 0.0 W/m2 CLR
00:29 15.0 °C 7.8 °C 1012.1 hPa SSW 22.2 km/h 22.2 km/h 62 % 0.0 mm 0.0 W/m2 CLR
00:34 14.4 °C 7.2 °C 1012.1 hPa SSW 25.9 km/h 25.9 km/h 62 % 0.0 mm 0.0 W/m2 CLR
00:39 14.4 °C 7.5 °C 1011.7 hPa SSW 29.6 km/h 29.6 km/h 63 % 0.0 mm 0.0 W/m2 CLR
00:44 14.4 °C 7.5 °C 1011.7 hPa SSW 33.3 km/h 33.3 km/h 63 % 0.0 mm 0.0 W/m2 CLR
00:49 14.4 °C 7.5 °C 1011.7 hPa SSW 27.8 km/h 27.8 km/h 63 % 0.0 mm 0.0 W/m2 CLR
00:54 14.4 °C 7.7 °C 1011.7 hPa SW 25.7 km/h 25.7 km/h 64 % 0.0 mm 0.0 W/m2 CLR
00:59 14.4 °C 7.7 °C 1011.7 hPa SSW 18.5 km/h 18.5 km/h 64 % 0.0 mm 0.0 W/m2 CLR
01:04 14.4 °C 7.7 °C 1011.4 hPa SSW 31.5 km/h 31.5 km/h 64 % 0.0 mm 0.0 W/m2 CLR
01:09 14.4 °C 7.7 °C 1011.4 hPa WSW 35.2 km/h 35.2 km/h 64 % 0.0 mm 0.0 W/m2 CLR
01:15 14.4 °C 7.9 °C 1011.4 hPa SSW 38.6 km/h 38.6 km/h 65 % 0.0 mm 0.0 W/m2 CLR
01:20 14.4 °C 7.9 °C 1011.4 hPa SSW 37.0 km/h 37.0 km/h 65 % 0.0 mm 0.0 W/m2 CLR
01:25 14.4 °C 7.9 °C 1011.4 hPa SSW 35.2 km/h 35.2 km/h 65 % 0.0 mm 0.0 W/m2 CLR
01:30 14.4 °C 7.9 °C 1011.4 hPa SSW 38.9 km/h 38.9 km/h 65 % 0.0 mm 0.0 W/m2 CLR
01:35 14.4 °C 7.9 °C 1011.4 hPa SW 42.6 km/h 42.6 km/h 65 % 0.0 mm 0.0 W/m2 CLR
01:40 14.4 °C 7.9 °C 1011.7 hPa SW 25.7 km/h 25.7 km/h 65 % 0.0 mm 0.0 W/m2 CLR
01:45 14.4 °C 8.2 °C 1011.7 hPa SSW 35.2 km/h 35.2 km/h 66 % 0.0 mm 0.0 W/m2 CLR
01:50 14.4 °C 8.2 °C 1011.4 hPa West 29.6 km/h 29.6 km/h 66 % 0.0 mm 0.0 W/m2 CLR
01:55 14.4 °C 8.4 °C 1011.4 hPa WSW 29.6 km/h 29.6 km/h 67 % 0.0 mm 0.0 W/m2 CLR
02:00 14.4 °C 8.4 °C 1011.4 hPa SW 42.6 km/h 42.6 km/h 67 % 0.0 mm 0.0 W/m2 CLR
02:05 13.9 °C 7.6 °C 1011.1 hPa SW 42.6 km/h 42.6 km/h 66 % 0.0 mm 0.0 W/m2 CLR
02:10 13.9 °C 7.6 °C 1011.1 hPa SSW 37.0 km/h 37.0 km/h 66 % 0.0 mm 0.0 W/m2 CLR
02:12 13.9 °C 7.6 °C 1011.1 hPa SSW 40.7 km/h 40.7 km/h 66 % 0.0 mm 0.0 W/m2 CLR
02:17 14.4 °C 8.2 °C 1011.1 hPa SW 44.4 km/h 44.4 km/h 66 % 0.0 mm 0.0 W/m2 CLR
02:22 13.9 °C 7.6 °C 1011.1 hPa SSW 44.4 km/h 44.4 km/h 66 % 0.0 mm 0.0 W/m2 CLR
02:27 13.9 °C 7.6 °C 1011.1 hPa SW 46.3 km/h 46.3 km/h 66 % 0.0 mm 0.0 W/m2 CLR
02:32 14.4 °C 8.2 °C 1011.4 hPa SW 38.9 km/h 38.9 km/h 66 % 0.0 mm 0.0 W/m2 CLR
02:37 13.9 °C 7.6 °C 1011.4 hPa SW 55.5 km/h 55.5 km/h 66 % 0.0 mm 0.0 W/m2 CLR
02:42 14.4 °C 8.2 °C 1011.4 hPa SW 42.6 km/h 42.6 km/h 66 % 0.0 mm 0.0 W/m2 CLR
02:47 13.9 °C 7.8 °C 1011.4 hPa SW 46.3 km/h 46.3 km/h 67 % 0.0 mm 0.0 W/m2 CLR
02:52 13.9 °C 7.8 °C 1011.1 hPa SW 46.3 km/h 46.3 km/h 67 % 0.0 mm 0.0 W/m2 CLR
02:57 13.9 °C 7.8 °C 1011.4 hPa SW 46.3 km/h 46.3 km/h 67 % 0.0 mm 0.0 W/m2 CLR
03:02 13.9 °C 7.8 °C 1011.4 hPa SSW 33.8 km/h 33.8 km/h 67 % 0.0 mm 0.0 W/m2 CLR
03:07 13.9 °C 7.8 °C 1011.4 hPa SSW 42.6 km/h 42.6 km/h 67 % 0.0 mm 0.0 W/m2 CLR
03:12 13.9 °C 7.8 °C 1011.7 hPa SSW 40.2 km/h 40.2 km/h 67 % 0.0 mm 0.0 W/m2 CLR
03:17 13.9 °C 7.8 °C 1011.7 hPa SSW 35.2 km/h 35.2 km/h 67 % 0.0 mm 0.0 W/m2 CLR
03:22 13.9 °C 7.8 °C 1011.7 hPa SW 37.0 km/h 37.0 km/h 67 % 0.0 mm 0.0 W/m2 CLR
03:27 13.9 °C 8.1 °C 1011.7 hPa SSW 35.2 km/h 35.2 km/h 68 % 0.0 mm 0.0 W/m2 CLR
03:32 13.9 °C 8.1 °C 1011.7 hPa SW 27.8 km/h 27.8 km/h 68 % 0.0 mm 0.0 W/m2 CLR
03:37 13.9 °C 8.1 °C 1011.7 hPa WSW 24.1 km/h 24.1 km/h 68 % 0.0 mm 0.0 W/m2 CLR
03:42 13.9 °C 8.1 °C 1011.7 hPa SW 31.5 km/h 31.5 km/h 68 % 0.0 mm 0.0 W/m2 CLR
03:47 13.9 °C 8.1 °C 1011.7 hPa SW 27.8 km/h 27.8 km/h 68 % 0.0 mm 0.0 W/m2 CLR
03:52 13.3 °C 7.6 °C 1011.4 hPa West 37.0 km/h 37.0 km/h 68 % 0.0 mm 0.0 W/m2 CLR
03:57 13.9 °C 8.1 °C 1011.4 hPa SSW 20.4 km/h 20.4 km/h 68 % 0.0 mm 0.0 W/m2 CLR
04:02 13.3 °C 7.6 °C 1011.4 hPa SW 25.9 km/h 25.9 km/h 68 % 0.0 mm 0.0 W/m2 CLR
04:07 13.3 °C 7.6 °C 1011.4 hPa SW 29.6 km/h 29.6 km/h 68 % 0.0 mm 0.0 W/m2 CLR
04:12 13.3 °C 7.3 °C 1011.4 hPa SW 32.2 km/h 32.2 km/h 67 % 0.0 mm 0.0 W/m2 CLR
04:17 13.3 °C 7.3 °C 1011.4 hPa SW 44.4 km/h 44.4 km/h 67 % 0.0 mm 0.0 W/m2 CLR
04:22 13.9 °C 7.8 °C 1011.4 hPa WSW 42.6 km/h 42.6 km/h 67 % 0.0 mm 0.0 W/m2 CLR
04:27 13.3 °C 7.3 °C 1011.7 hPa SW 31.5 km/h 31.5 km/h 67 % 0.0 mm 0.0 W/m2 CLR
04:32 13.9 °C 7.8 °C 1011.4 hPa SW 33.8 km/h 33.8 km/h 67 % 0.0 mm 0.0 W/m2 CLR
04:37 13.3 °C 7.3 °C 1011.7 hPa SW 31.5 km/h 31.5 km/h 67 % 0.0 mm 0.0 W/m2 CLR
04:42 13.3 °C 7.3 °C 1011.7 hPa SW 35.2 km/h 35.2 km/h 67 % 0.0 mm 0.0 W/m2 CLR
04:47 13.3 °C 7.6 °C 1011.7 hPa SSW 31.5 km/h 31.5 km/h 68 % 0.0 mm 0.0 W/m2 CLR
04:52 13.3 °C 7.6 °C 1011.7 hPa SW 31.5 km/h 31.5 km/h 68 % 0.0 mm 0.0 W/m2 CLR
04:57 13.3 °C 7.6 °C 1011.7 hPa SSW 40.7 km/h 40.7 km/h 68 % 0.0 mm 0.0 W/m2 CLR
05:02 13.3 °C 7.6 °C 1011.7 hPa SW 31.5 km/h 31.5 km/h 68 % 0.0 mm 0.0 W/m2 CLR
05:07 13.3 °C 7.6 °C 1011.7 hPa SSW 25.9 km/h 25.9 km/h 68 % 0.0 mm 0.0 W/m2 CLR
05:12 13.3 °C 7.6 °C 1011.7 hPa SW 33.3 km/h 33.3 km/h 68 % 0.0 mm 0.0 W/m2 CLR
05:17 13.3 °C 7.6 °C 1011.7 hPa SW 31.5 km/h 31.5 km/h 68 % 0.0 mm 0.0 W/m2 CLR
05:22 13.3 °C 7.6 °C 1011.7 hPa SW 38.6 km/h 38.6 km/h 68 % 0.0 mm 0.0 W/m2 CLR
05:27 13.3 °C 7.6 °C 1011.7 hPa SW 29.6 km/h 29.6 km/h 68 % 0.0 mm 0.0 W/m2 CLR
05:32 13.3 °C 7.6 °C 1011.7 hPa SW 29.6 km/h 29.6 km/h 68 % 0.0 mm 0.0 W/m2 CLR
05:37 13.3 °C 7.8 °C 1011.7 hPa SW 30.6 km/h 30.6 km/h 69 % 0.0 mm 0.0 W/m2 CLR
05:42 13.3 °C 7.8 °C 1011.7 hPa West 27.8 km/h 27.8 km/h 69 % 0.0 mm 0.0 W/m2 CLR
05:48 13.3 °C 7.8 °C 1012.1 hPa SW 31.5 km/h 31.5 km/h 69 % 0.0 mm 0.0 W/m2 CLR
05:53 13.3 °C 7.8 °C 1012.1 hPa SW 24.1 km/h 24.1 km/h 69 % 0.0 mm 0.0 W/m2 CLR
05:58 13.3 °C 7.8 °C 1012.1 hPa SSW 27.8 km/h 27.8 km/h 69 % 0.0 mm 0.0 W/m2 CLR
06:03 12.8 °C 7.2 °C 1012.1 hPa WSW 25.9 km/h 25.9 km/h 69 % 0.0 mm 0.0 W/m2 CLR
06:08 13.3 °C 7.8 °C 1012.1 hPa WSW 31.5 km/h 31.5 km/h 69 % 0.0 mm 0.0 W/m2 CLR
06:13 12.8 °C 7.2 °C 1012.1 hPa SW 32.2 km/h 32.2 km/h 69 % 0.0 mm 0.0 W/m2 CLR
06:18 13.3 °C 7.8 °C 1011.7 hPa SW 31.5 km/h 31.5 km/h 69 % 0.0 mm 0.0 W/m2 CLR
06:23 13.3 °C 7.8 °C 1011.7 hPa SSW 38.9 km/h 38.9 km/h 69 % 0.0 mm 0.0 W/m2 CLR
06:28 13.3 °C 7.8 °C 1011.7 hPa SW 33.3 km/h 33.3 km/h 69 % 0.0 mm 0.0 W/m2 CLR
06:33 13.3 °C 7.8 °C 1011.7 hPa SW 42.6 km/h 42.6 km/h 69 % 0.0 mm 0.0 W/m2 CLR
06:38 13.3 °C 7.8 °C 1011.7 hPa SW 46.3 km/h 46.3 km/h 69 % 0.0 mm 0.0 W/m2 CLR
06:43 13.3 °C 7.8 °C 1012.1 hPa SW 42.6 km/h 42.6 km/h 69 % 0.0 mm 0.0 W/m2 CLR
06:48 13.3 °C 7.8 °C 1012.1 hPa WSW 31.5 km/h 31.5 km/h 69 % 0.0 mm 0.0 W/m2 CLR
06:53 13.3 °C 7.8 °C 1012.1 hPa SW 51.8 km/h 51.8 km/h 69 % 0.0 mm 0.0 W/m2 CLR
06:58 13.3 °C 7.8 °C 1012.4 hPa West 38.9 km/h 38.9 km/h 69 % 0.0 mm 0.0 W/m2 CLR
07:03 13.3 °C 7.8 °C 1012.1 hPa WSW 38.9 km/h 38.9 km/h 69 % 0.0 mm 0.0 W/m2 CLR
07:08 13.3 °C 7.8 °C 1012.4 hPa WSW 37.0 km/h 37.0 km/h 69 % 0.0 mm 0.0 W/m2 CLR
07:13 13.3 °C 7.8 °C 1012.4 hPa SW 27.8 km/h 27.8 km/h 69 % 0.0 mm 0.0 W/m2 CLR
07:18 13.3 °C 8.0 °C 1012.4 hPa WSW 44.4 km/h 44.4 km/h 70 % 0.0 mm 0.0 W/m2 CLR
07:23 13.3 °C 8.0 °C 1012.4 hPa West 31.5 km/h 31.5 km/h 70 % 0.0 mm 0.0 W/m2 CLR
07:28 13.3 °C 8.0 °C 1012.4 hPa SW 35.2 km/h 35.2 km/h 70 % 0.0 mm 0.0 W/m2 OVC
07:33 13.3 °C 8.0 °C 1012.8 hPa SW 31.5 km/h 31.5 km/h 70 % 0.0 mm 0.0 W/m2 OVC
07:38 13.3 °C 8.0 °C 1012.8 hPa SW 32.2 km/h 32.2 km/h 70 % 0.0 mm 7.0 W/m2 BKN
07:43 13.3 °C 8.0 °C 1012.8 hPa SW 35.2 km/h 35.2 km/h 70 % 0.0 mm 11.0 W/m2 BKN
07:48 13.3 °C 8.0 °C 1012.8 hPa SSW 31.5 km/h 31.5 km/h 70 % 0.0 mm 14.0 W/m2 BKN
07:53 13.3 °C 8.0 °C 1012.8 hPa SW 27.8 km/h 27.8 km/h 70 % 0.0 mm 18.0 W/m2 BKN
07:58 13.3 °C 8.0 °C 1012.8 hPa WSW 46.7 km/h 46.7 km/h 70 % 0.0 mm 19.0 W/m2 BKN
08:03 13.3 °C 8.0 °C 1012.8 hPa WSW 42.6 km/h 42.6 km/h 70 % 0.0 mm 25.0 W/m2 BKN
08:08 13.3 °C 8.0 °C 1012.8 hPa SW 37.0 km/h 37.0 km/h 70 % 0.0 mm 32.0 W/m2 BKN
08:13 13.3 °C 8.0 °C 1012.8 hPa SW 32.2 km/h 32.2 km/h 70 % 0.0 mm 44.0 W/m2 BKN
08:18 13.3 °C 8.0 °C 1012.8 hPa SSW 35.2 km/h 35.2 km/h 70 % 0.0 mm 54.0 W/m2 SCT
08:23 13.9 °C 8.3 °C 1013.1 hPa SW 31.5 km/h 31.5 km/h 69 % 0.0 mm 63.0 W/m2 SCT
08:28 13.9 °C 8.3 °C 1013.1 hPa SW 35.4 km/h 35.4 km/h 69 % 0.0 mm 77.0 W/m2 FEW
08:33 13.9 °C 8.3 °C 1013.1 hPa SW 42.6 km/h 42.6 km/h 69 % 0.0 mm 54.0 W/m2 FEW
08:38 13.9 °C 8.3 °C 1013.1 hPa WSW 37.0 km/h 37.0 km/h 69 % 0.0 mm 46.0 W/m2 SCT
08:43 13.9 °C 8.1 °C 1013.1 hPa SW 35.4 km/h 35.4 km/h 68 % 0.0 mm 40.0 W/m2 BKN
08:48 13.9 °C 8.1 °C 1013.1 hPa WSW 31.5 km/h 31.5 km/h 68 % 0.0 mm 42.0 W/m2 BKN
08:53 14.4 °C 8.6 °C 1013.4 hPa WSW 38.9 km/h 38.9 km/h 68 % 0.0 mm 165.0 W/m2 SCT
08:58 14.4 °C 8.4 °C 1013.1 hPa SW 37.0 km/h 37.0 km/h 67 % 0.0 mm 185.0 W/m2 CLR
09:03 14.4 °C 8.4 °C 1013.1 hPa SSW 37.0 km/h 37.0 km/h 67 % 0.0 mm 202.0 W/m2 CLR
09:08 14.4 °C 8.4 °C 1013.4 hPa WSW 35.4 km/h 35.4 km/h 67 % 0.0 mm 218.0 W/m2 CLR
09:13 15.0 °C 8.7 °C 1013.1 hPa WSW 25.9 km/h 25.9 km/h 66 % 0.0 mm 236.0 W/m2 CLR
09:18 15.0 °C 8.4 °C 1013.1 hPa South 27.8 km/h 27.8 km/h 65 % 0.0 mm 255.0 W/m2 CLR
09:23 15.0 °C 8.4 °C 1013.1 hPa SW 51.8 km/h 51.8 km/h 65 % 0.0 mm 267.0 W/m2 CLR
09:28 15.0 °C 8.2 °C 1013.1 hPa SW 37.0 km/h 37.0 km/h 64 % 0.0 mm 285.0 W/m2 CLR
09:33 15.6 °C 8.8 °C 1013.4 hPa WSW 48.1 km/h 48.1 km/h 64 % 0.0 mm 301.0 W/m2 CLR
09:38 15.6 °C 8.8 °C 1013.4 hPa SW 46.3 km/h 46.3 km/h 64 % 0.0 mm 315.0 W/m2 CLR
09:43 15.6 °C 8.6 °C 1013.4 hPa WSW 55.5 km/h 55.5 km/h 63 % 0.0 mm 332.0 W/m2 CLR
09:48 15.6 °C 8.6 °C 1013.4 hPa SW 38.6 km/h 38.6 km/h 63 % 0.0 mm 350.0 W/m2 CLR
09:53 16.1 °C 9.1 °C 1013.4 hPa WSW 33.8 km/h 33.8 km/h 63 % 0.0 mm 362.0 W/m2 CLR
09:58 16.1 °C 8.8 °C 1013.4 hPa SW 42.6 km/h 42.6 km/h 62 % 0.0 mm 381.0 W/m2 CLR
10:03 16.1 °C 8.6 °C 1013.4 hPa WSW 50.0 km/h 50.0 km/h 61 % 0.0 mm 399.0 W/m2 CLR
10:08 16.1 °C 8.6 °C 1013.8 hPa SW 51.8 km/h 51.8 km/h 61 % 0.0 mm 413.0 W/m2 CLR
10:13 16.7 °C 9.1 °C 1013.8 hPa West 49.9 km/h 49.9 km/h 61 % 0.0 mm 432.0 W/m2 CLR
10:18 16.7 °C 9.1 °C 1013.8 hPa SW 38.6 km/h 38.6 km/h 61 % 0.0 mm 443.0 W/m2 CLR
10:23 16.7 °C 8.6 °C 1013.8 hPa WSW 57.9 km/h 57.9 km/h 59 % 0.0 mm 459.0 W/m2 CLR
10:28 16.7 °C 8.6 °C 1013.4 hPa WSW 38.6 km/h 38.6 km/h 59 % 0.0 mm 471.0 W/m2 CLR
10:33 17.2 °C 8.9 °C 1014.1 hPa WSW 53.7 km/h 53.7 km/h 58 % 0.0 mm 489.0 W/m2 CLR
10:38 17.2 °C 8.9 °C 1013.8 hPa WSW 50.0 km/h 50.0 km/h 58 % 0.0 mm 501.0 W/m2 CLR
10:43 17.8 °C 9.2 °C 1013.8 hPa WSW 62.8 km/h 62.8 km/h 57 % 0.0 mm 519.0 W/m2 CLR
10:48 17.8 °C 9.2 °C 1014.1 hPa WSW 46.3 km/h 46.3 km/h 57 % 0.0 mm 575.0 W/m2 CLR
10:53 17.8 °C 9.2 °C 1013.8 hPa SW 59.2 km/h 59.2 km/h 57 % 0.0 mm 548.0 W/m2 CLR
10:58 17.8 °C 9.4 °C 1013.8 hPa WSW 42.6 km/h 42.6 km/h 58 % 0.0 mm 555.0 W/m2 CLR
11:03 18.3 °C 9.7 °C 1013.8 hPa SW 53.7 km/h 53.7 km/h 57 % 0.0 mm 496.0 W/m2 CLR
11:08 18.3 °C 9.7 °C 1013.8 hPa WSW 59.2 km/h 59.2 km/h 57 % 0.0 mm 587.0 W/m2 CLR
11:13 18.3 °C 9.4 °C 1013.8 hPa WSW 55.5 km/h 55.5 km/h 56 % 0.0 mm 594.0 W/m2 CLR
11:18 18.3 °C 9.4 °C 1013.8 hPa SW 50.0 km/h 50.0 km/h 56 % 0.0 mm 608.0 W/m2 CLR
11:23 18.9 °C 9.9 °C 1013.8 hPa WSW 55.5 km/h 55.5 km/h 56 % 0.0 mm 626.0 W/m2 CLR
11:28 18.9 °C 9.7 °C 1013.8 hPa WSW 62.9 km/h 62.9 km/h 55 % 0.0 mm 638.0 W/m2 CLR
11:33 18.9 °C 9.4 °C 1013.8 hPa SW 46.3 km/h 46.3 km/h 54 % 0.0 mm 647.0 W/m2 CLR
11:38 18.9 °C 9.7 °C 1014.1 hPa WSW 57.9 km/h 57.9 km/h 55 % 0.0 mm 675.0 W/m2 CLR
11:43 19.4 °C 9.9 °C 1014.1 hPa SW 61.1 km/h 61.1 km/h 54 % 0.0 mm 680.0 W/m2 CLR
11:49 19.4 °C 9.9 °C 1013.8 hPa SW 55.5 km/h 55.5 km/h 54 % 0.0 mm 682.0 W/m2 CLR
11:54 19.4 °C 9.9 °C 1013.8 hPa SW 70.3 km/h 70.3 km/h 54 % 0.0 mm 694.0 W/m2 CLR
11:59 19.4 °C 9.6 °C 1013.8 hPa SW 55.5 km/h 55.5 km/h 53 % 0.0 mm 700.0 W/m2 CLR
12:04 19.4 °C 9.9 °C 1013.8 hPa WSW 48.1 km/h 48.1 km/h 54 % 0.0 mm 708.0 W/m2 CLR
12:09 20.0 °C 9.8 °C 1013.8 hPa WSW 62.9 km/h 62.9 km/h 52 % 0.0 mm 717.0 W/m2 CLR
12:14 20.0 °C 9.8 °C 1013.8 hPa SW 55.5 km/h 55.5 km/h 52 % 0.0 mm 726.0 W/m2 CLR
12:19 20.0 °C 9.8 °C 1013.8 hPa WSW 59.2 km/h 59.2 km/h 52 % 0.0 mm 740.0 W/m2 CLR
12:24 20.0 °C 9.8 °C 1013.8 hPa WSW 59.2 km/h 59.2 km/h 52 % 0.0 mm 751.0 W/m2 CLR
12:29 20.0 °C 9.8 °C 1014.1 hPa WSW 48.1 km/h 48.1 km/h 52 % 0.0 mm 786.0 W/m2 CLR
12:34 20.0 °C 9.8 °C 1013.8 hPa West 42.6 km/h 42.6 km/h 52 % 0.0 mm 768.0 W/m2 CLR
12:39 20.6 °C 10.1 °C 1014.1 hPa WSW 51.8 km/h 51.8 km/h 51 % 0.0 mm 798.0 W/m2 CLR
12:44 20.6 °C 9.8 °C 1014.1 hPa WSW 61.1 km/h 61.1 km/h 50 % 0.0 mm 816.0 W/m2 CLR
12:49 20.6 °C 9.8 °C 1014.1 hPa WSW 43.4 km/h 43.4 km/h 50 % 0.0 mm 810.0 W/m2 CLR
12:54 21.1 °C 10.6 °C 1014.1 hPa WSW 51.8 km/h 51.8 km/h 51 % 0.0 mm 803.0 W/m2 CLR
12:59 20.6 °C 9.8 °C 1014.1 hPa SW 51.8 km/h 51.8 km/h 50 % 0.0 mm 752.0 W/m2 CLR
13:04 21.1 °C 10.0 °C 1014.1 hPa SW 51.8 km/h 51.8 km/h 49 % 0.0 mm 793.0 W/m2 CLR
13:09 21.1 °C 10.0 °C 1013.8 hPa WSW 46.3 km/h 46.3 km/h 49 % 0.0 mm 795.0 W/m2 CLR
13:14 21.1 °C 10.0 °C 1013.8 hPa West 44.4 km/h 44.4 km/h 49 % 0.0 mm 810.0 W/m2 CLR
13:19 21.7 °C 10.2 °C 1013.8 hPa WSW 53.7 km/h 53.7 km/h 48 % 0.0 mm 830.0 W/m2 CLR
13:24 20.6 °C 9.4 °C 1013.8 hPa WSW 38.9 km/h 46.8 km/h 49 % 0.0 mm 824.0 W/m2 CLR
13:29 21.1 °C 10.0 °C 1013.8 hPa WSW 56.3 km/h 56.3 km/h 49 % 0.0 mm 821.0 W/m2 CLR
13:34 21.1 °C 10.0 °C 1013.8 hPa WSW 49.9 km/h 49.9 km/h 49 % 0.0 mm 831.0 W/m2 CLR
13:39 21.7 °C 10.5 °C 1013.8 hPa WSW 61.1 km/h 61.1 km/h 49 % 0.0 mm 837.0 W/m2 CLR
13:44 21.1 °C 10.3 °C 1013.8 hPa SW 42.6 km/h 42.6 km/h 50 % 0.0 mm 807.0 W/m2 CLR
13:49 21.1 °C 10.3 °C 1013.8 hPa SW 46.3 km/h 46.3 km/h 50 % 0.0 mm 812.0 W/m2 CLR
13:54 21.7 °C 10.5 °C 1013.8 hPa SW 48.3 km/h 48.3 km/h 49 % 0.0 mm 816.0 W/m2 CLR
13:59 21.7 °C 10.5 °C 1013.8 hPa West 49.9 km/h 49.9 km/h 49 % 0.0 mm 814.0 W/m2 CLR
14:04 21.7 °C 10.5 °C 1013.8 hPa SW 50.0 km/h 50.0 km/h 49 % 0.0 mm 810.0 W/m2 CLR
14:09 21.7 °C 9.8 °C 1013.8 hPa SW 61.1 km/h 61.1 km/h 47 % 0.0 mm 812.0 W/m2 CLR
14:14 21.7 °C 9.8 °C 1014.1 hPa WSW 51.8 km/h 51.8 km/h 47 % 0.0 mm 809.0 W/m2 CLR
14:19 21.7 °C 9.8 °C 1014.1 hPa West 64.8 km/h 64.8 km/h 47 % 0.0 mm 809.0 W/m2 CLR
14:24 22.2 °C 10.7 °C 1014.1 hPa WSW 57.4 km/h 57.4 km/h 48 % 0.0 mm 812.0 W/m2 CLR
14:29 21.7 °C 9.8 °C 1013.8 hPa WSW 55.5 km/h 55.5 km/h 47 % 0.0 mm 805.0 W/m2 CLR
14:34 21.7 °C 9.8 °C 1014.1 hPa WSW 57.4 km/h 57.4 km/h 47 % 0.0 mm 805.0 W/m2 CLR
14:39 22.2 °C 10.1 °C 1014.1 hPa WSW 59.2 km/h 59.2 km/h 46 % 0.0 mm 846.0 W/m2 CLR
14:44 22.2 °C 10.1 °C 1013.8 hPa WSW 55.5 km/h 55.5 km/h 46 % 0.0 mm 831.0 W/m2 CLR
14:49 22.2 °C 10.4 °C 1013.8 hPa WSW 48.3 km/h 48.3 km/h 47 % 0.0 mm 816.0 W/m2 CLR
14:54 22.2 °C 9.7 °C 1013.8 hPa WSW 44.4 km/h 44.4 km/h 45 % 0.0 mm 793.0 W/m2 CLR
14:59 21.7 °C 9.2 °C 1013.8 hPa SW 53.7 km/h 53.7 km/h 45 % 0.0 mm 786.0 W/m2 CLR
15:04 22.2 °C 9.4 °C 1013.8 hPa WSW 48.1 km/h 48.1 km/h 44 % 0.0 mm 779.0 W/m2 CLR
15:09 22.8 °C 10.2 °C 1013.8 hPa West 53.7 km/h 53.7 km/h 45 % 0.0 mm 784.0 W/m2 CLR
15:14 22.2 °C 9.7 °C 1013.8 hPa SW 44.4 km/h 44.4 km/h 45 % 0.0 mm 775.0 W/m2 CLR
15:19 22.8 °C 9.9 °C 1014.1 hPa West 50.0 km/h 50.0 km/h 44 % 0.0 mm 795.0 W/m2 CLR
15:24 22.8 °C 9.9 °C 1013.8 hPa SW 42.6 km/h 42.6 km/h 44 % 0.0 mm 779.0 W/m2 CLR
15:29 22.8 °C 9.9 °C 1013.8 hPa SW 55.5 km/h 55.5 km/h 44 % 0.0 mm 789.0 W/m2 CLR
15:30 22.8 °C 9.9 °C 1013.8 hPa SW 55.5 km/h 55.5 km/h 44 % 0.0 mm 789.0 W/m2 CLR
15:35 22.2 °C 9.7 °C 1013.8 hPa WSW 51.8 km/h 51.8 km/h 45 % 0.0 mm 782.0 W/m2 CLR
15:40 22.2 °C 9.7 °C 1013.8 hPa WSW 61.1 km/h 61.1 km/h 45 % 0.0 mm 731.0 W/m2 CLR
15:45 22.2 °C 9.4 °C 1013.8 hPa SW 48.1 km/h 48.1 km/h 44 % 0.0 mm 714.0 W/m2 CLR
15:50 22.2 °C 9.4 °C 1013.8 hPa SW 44.4 km/h 44.4 km/h 44 % 0.0 mm 714.0 W/m2 CLR
15:55 22.8 °C 10.2 °C 1013.8 hPa WSW 51.8 km/h 51.8 km/h 45 % 0.0 mm 705.0 W/m2 CLR
16:00 22.2 °C 9.1 °C 1013.8 hPa SW 55.5 km/h 55.5 km/h 43 % 0.0 mm 694.0 W/m2 CLR
16:05 22.2 °C 9.7 °C 1013.8 hPa WSW 50.0 km/h 50.0 km/h 45 % 0.0 mm 689.0 W/m2 CLR
16:10 22.2 °C 9.7 °C 1013.8 hPa WSW 45.1 km/h 45.1 km/h 45 % 0.0 mm 677.0 W/m2 CLR
16:15 22.2 °C 9.4 °C 1013.4 hPa West 55.5 km/h 55.5 km/h 44 % 0.0 mm 664.0 W/m2 CLR
16:20 22.2 °C 9.4 °C 1013.4 hPa WSW 46.3 km/h 46.3 km/h 44 % 0.0 mm 649.0 W/m2 CLR
16:25 22.2 °C 9.7 °C 1013.4 hPa WSW 40.2 km/h 40.2 km/h 45 % 0.0 mm 647.0 W/m2 CLR
16:30 22.2 °C 9.1 °C 1013.4 hPa SW 62.9 km/h 62.9 km/h 43 % 0.0 mm 628.0 W/m2 CLR
16:35 22.2 °C 9.7 °C 1013.4 hPa SW 44.4 km/h 44.4 km/h 45 % 0.0 mm 615.0 W/m2 CLR
16:40 22.8 °C 9.9 °C 1013.4 hPa WSW 57.4 km/h 57.4 km/h 44 % 0.0 mm 605.0 W/m2 CLR
16:45 22.2 °C 9.4 °C 1013.8 hPa SW 57.4 km/h 57.4 km/h 44 % 0.0 mm 589.0 W/m2 CLR
16:50 22.2 °C 9.4 °C 1013.4 hPa WSW 55.5 km/h 55.5 km/h 44 % 0.0 mm 575.0 W/m2 CLR
16:55 21.7 °C 9.2 °C 1013.4 hPa West 46.3 km/h 46.3 km/h 45 % 0.0 mm 566.0 W/m2 CLR
17:00 21.7 °C 8.9 °C 1013.4 hPa WSW 48.1 km/h 48.1 km/h 44 % 0.0 mm 555.0 W/m2 CLR
17:05 21.7 °C 9.2 °C 1013.4 hPa SW 46.3 km/h 46.3 km/h 45 % 0.0 mm 540.0 W/m2 CLR
17:10 21.7 °C 9.2 °C 1013.4 hPa West 50.0 km/h 50.0 km/h 45 % 0.0 mm 524.0 W/m2 CLR
17:15 21.7 °C 9.2 °C 1013.4 hPa SW 53.7 km/h 53.7 km/h 45 % 0.0 mm 510.0 W/m2 CLR
17:20 21.7 °C 9.2 °C 1013.4 hPa West 55.5 km/h 55.5 km/h 45 % 0.0 mm 494.0 W/m2 CLR
17:25 21.7 °C 9.6 °C 1013.4 hPa SW 50.0 km/h 50.0 km/h 46 % 0.0 mm 480.0 W/m2 CLR
17:30 22.2 °C 9.7 °C 1013.4 hPa SW 53.7 km/h 53.7 km/h 45 % 0.0 mm 462.0 W/m2 CLR
17:35 22.2 °C 9.7 °C 1013.4 hPa SW 35.2 km/h 35.2 km/h 45 % 0.0 mm 452.0 W/m2 CLR
17:40 22.2 °C 9.4 °C 1013.4 hPa WSW 35.2 km/h 35.2 km/h 44 % 0.0 mm 432.0 W/m2 CLR
17:45 22.2 °C 9.1 °C 1013.8 hPa WSW 48.1 km/h 48.1 km/h 43 % 0.0 mm 418.0 W/m2 CLR
17:46 22.2 °C 9.1 °C 1013.8 hPa SW 48.1 km/h 48.1 km/h 43 % 0.0 mm 418.0 W/m2 CLR
17:51 22.2 °C 9.7 °C 1013.8 hPa West 40.7 km/h 40.7 km/h 45 % 0.0 mm 403.0 W/m2 CLR
17:56 22.2 °C 9.4 °C 1013.8 hPa WSW 37.0 km/h 37.0 km/h 44 % 0.0 mm 387.0 W/m2 CLR
18:01 21.7 °C 8.2 °C 1013.8 hPa WSW 48.3 km/h 48.3 km/h 42 % 0.0 mm 367.0 W/m2 CLR
18:06 21.7 °C 8.6 °C 1013.8 hPa WSW 37.0 km/h 37.0 km/h 43 % 0.0 mm 355.0 W/m2 CLR
18:11 22.2 °C 9.1 °C 1013.8 hPa WSW 33.3 km/h 33.3 km/h 43 % 0.0 mm 338.0 W/m2 CLR
18:16 21.7 °C 8.2 °C 1013.8 hPa WSW 35.2 km/h 35.2 km/h 42 % 0.0 mm 327.0 W/m2 CLR
18:21 21.7 °C 8.2 °C 1014.1 hPa SW 48.1 km/h 48.1 km/h 42 % 0.0 mm 316.0 W/m2 CLR
18:26 21.7 °C 8.6 °C 1013.8 hPa SW 20.9 km/h 20.9 km/h 43 % 0.0 mm 297.0 W/m2 CLR
18:31 21.7 °C 7.8 °C 1014.1 hPa WSW 33.3 km/h 33.3 km/h 41 % 0.0 mm 283.0 W/m2 CLR
18:36 21.1 °C 7.7 °C 1014.1 hPa WSW 37.0 km/h 37.0 km/h 42 % 0.0 mm 269.0 W/m2 CLR
18:41 21.1 °C 8.1 °C 1014.4 hPa WSW 50.0 km/h 50.0 km/h 43 % 0.0 mm 250.0 W/m2 CLR
18:42 21.1 °C 8.1 °C 1014.1 hPa SW 50.0 km/h 50.0 km/h 43 % 0.0 mm 241.0 W/m2 CLR
18:47 21.1 °C 8.1 °C 1014.1 hPa WSW 42.6 km/h 42.6 km/h 43 % 0.0 mm 227.0 W/m2 CLR
18:52 21.1 °C 8.1 °C 1014.4 hPa SW 46.7 km/h 46.7 km/h 43 % 0.0 mm 207.0 W/m2 CLR
18:57 21.1 °C 8.1 °C 1014.4 hPa West 33.3 km/h 33.3 km/h 43 % 0.0 mm 185.0 W/m2 CLR
19:02 20.6 °C 7.6 °C 1014.4 hPa SW 31.5 km/h 31.5 km/h 43 % 0.0 mm 163.0 W/m2 CLR
19:07 20.6 °C 7.6 °C 1014.4 hPa WSW 46.3 km/h 46.3 km/h 43 % 0.0 mm 146.0 W/m2 CLR
19:12 20.6 °C 7.6 °C 1014.4 hPa WSW 44.4 km/h 44.4 km/h 43 % 0.0 mm 130.0 W/m2 CLR
19:17 20.6 °C 7.6 °C 1014.4 hPa West 31.5 km/h 31.5 km/h 43 % 0.0 mm 116.0 W/m2 CLR
19:22 20.6 °C 7.6 °C 1014.4 hPa WSW 42.6 km/h 42.6 km/h 43 % 0.0 mm 100.0 W/m2 CLR
19:27 20.6 °C 7.9 °C 1014.4 hPa SW 27.8 km/h 27.8 km/h 44 % 0.0 mm 83.0 W/m2 CLR
19:32 20.6 °C 7.6 °C 1014.4 hPa WSW 20.9 km/h 20.9 km/h 43 % 0.0 mm 69.0 W/m2 FEW
19:37 20.6 °C 7.6 °C 1014.4 hPa SW 35.2 km/h 35.2 km/h 43 % 0.0 mm 53.0 W/m2 SCT
19:42 20.0 °C 7.1 °C 1014.4 hPa SSW 31.5 km/h 31.5 km/h 43 % 0.0 mm 42.0 W/m2 SCT
19:47 20.0 °C 7.4 °C 1014.4 hPa SW 31.5 km/h 31.5 km/h 44 % 0.0 mm 33.0 W/m2 BKN
19:52 20.0 °C 7.4 °C 1014.4 hPa SSW 11.1 km/h 11.1 km/h 44 % 0.0 mm 18.0 W/m2 BKN
19:57 20.0 °C 7.4 °C 1014.4 hPa SW 18.5 km/h 18.5 km/h 44 % 0.0 mm 14.0 W/m2 BKN
20:02 20.0 °C 7.7 °C 1014.4 hPa WSW 31.5 km/h 31.5 km/h 45 % 0.0 mm 12.0 W/m2 BKN
20:07 20.0 °C 7.7 °C 1014.4 hPa SW 31.5 km/h 31.5 km/h 45 % 0.0 mm 9.0 W/m2 BKN
20:12 19.4 °C 7.2 °C 1014.4 hPa SW 20.4 km/h 20.4 km/h 45 % 0.0 mm 5.0 W/m2 OVC
20:17 19.4 °C 7.5 °C 1014.4 hPa SW 18.5 km/h 18.5 km/h 46 % 0.0 mm 0.0 W/m2 OVC
20:22 19.4 °C 7.5 °C 1014.4 hPa SW 24.1 km/h 24.1 km/h 46 % 0.0 mm 0.0 W/m2 OVC
20:27 18.9 °C 7.3 °C 1014.8 hPa WSW 24.1 km/h 24.1 km/h 47 % 0.0 mm 0.0 W/m2 OVC
20:32 18.9 °C 7.3 °C 1014.8 hPa WSW 18.5 km/h 18.5 km/h 47 % 0.0 mm 0.0 W/m2 CLR
20:37 18.9 °C 7.6 °C 1014.8 hPa SW 16.7 km/h 16.7 km/h 48 % 0.0 mm 0.0 W/m2 CLR
20:42 18.9 °C 7.6 °C 1014.8 hPa SW 24.1 km/h 24.1 km/h 48 % 0.0 mm 0.0 W/m2 CLR
20:47 18.3 °C 7.1 °C 1014.8 hPa SW 27.8 km/h 27.8 km/h 48 % 0.0 mm 0.0 W/m2 CLR
20:52 18.9 °C 7.6 °C 1014.8 hPa WSW 29.6 km/h 29.6 km/h 48 % 0.0 mm 0.0 W/m2 CLR
20:57 18.9 °C 7.6 °C 1015.1 hPa West 25.9 km/h 25.9 km/h 48 % 0.0 mm 0.0 W/m2 CLR
20:58 18.9 °C 7.6 °C 1015.1 hPa WSW 24.1 km/h 24.1 km/h 48 % 0.0 mm 0.0 W/m2 CLR
21:03 18.9 °C 7.6 °C 1015.1 hPa WSW 22.2 km/h 22.2 km/h 48 % 0.0 mm 0.0 W/m2 CLR
21:08 18.3 °C 7.4 °C 1015.1 hPa SW 14.8 km/h 14.8 km/h 49 % 0.0 mm 0.0 W/m2 CLR
21:13 18.3 °C 7.4 °C 1015.1 hPa SW 13.0 km/h 13.0 km/h 49 % 0.0 mm 0.0 W/m2 CLR
21:18 18.3 °C 7.1 °C 1015.1 hPa Calm     48 % 0.0 mm 0.0 W/m2 CLR
21:23 18.3 °C 7.1 °C 1015.1 hPa SSW 20.4 km/h 20.4 km/h 48 % 0.0 mm 0.0 W/m2 CLR
21:28 18.3 °C 7.1 °C 1015.1 hPa SSW 16.7 km/h 16.7 km/h 48 % 0.0 mm 0.0 W/m2 CLR
21:33 18.3 °C 7.1 °C 1015.1 hPa SW 18.5 km/h 18.5 km/h 48 % 0.0 mm 0.0 W/m2 CLR
21:38 18.3 °C 7.1 °C 1015.1 hPa SW 20.4 km/h 20.4 km/h 48 % 0.0 mm 0.0 W/m2 CLR
21:43 18.9 °C 7.6 °C 1015.1 hPa SW 16.7 km/h 16.7 km/h 48 % 0.0 mm 0.0 W/m2 CLR
21:48 18.9 °C 7.6 °C 1015.5 hPa SW 24.1 km/h 24.1 km/h 48 % 0.0 mm 0.0 W/m2 CLR
21:53 18.9 °C 7.6 °C 1015.5 hPa West 18.5 km/h 18.5 km/h 48 % 0.0 mm 0.0 W/m2 CLR
21:58 18.9 °C 7.6 °C 1015.5 hPa WSW 25.9 km/h 25.9 km/h 48 % 0.0 mm 0.0 W/m2 CLR
22:03 18.9 °C 7.6 °C 1015.5 hPa WSW 24.1 km/h 24.1 km/h 48 % 0.0 mm 0.0 W/m2 CLR
22:08 18.9 °C 7.6 °C 1015.5 hPa WSW 37.0 km/h 37.0 km/h 48 % 0.0 mm 0.0 W/m2 CLR
22:13 18.9 °C 7.6 °C 1015.5 hPa SW 25.9 km/h 25.9 km/h 48 % 0.0 mm 0.0 W/m2 CLR
22:18 18.9 °C 7.9 °C 1015.5 hPa SW 13.0 km/h 13.0 km/h 49 % 0.0 mm 0.0 W/m2 CLR
22:23 18.9 °C 7.9 °C 1015.5 hPa SW 25.9 km/h 25.9 km/h 49 % 0.0 mm 0.0 W/m2 CLR
22:28 18.9 °C 8.2 °C 1015.5 hPa WSW 35.2 km/h 35.2 km/h 50 % 0.0 mm 0.0 W/m2 CLR
22:33 18.9 °C 8.2 °C 1015.1 hPa SSW 37.0 km/h 37.0 km/h 50 % 0.0 mm 0.0 W/m2 CLR
22:38 18.9 °C 8.2 °C 1015.5 hPa SW 27.4 km/h 27.4 km/h 50 % 0.0 mm 0.0 W/m2 CLR
22:43 18.9 °C 8.2 °C 1015.5 hPa SW 20.4 km/h 20.4 km/h 50 % 0.0 mm 0.0 W/m2 CLR
22:48 18.9 °C 8.5 °C 1015.5 hPa SSW 19.3 km/h 19.3 km/h 51 % 0.0 mm 0.0 W/m2 CLR
22:54 18.9 °C 8.5 °C 1015.5 hPa SW 14.8 km/h 14.8 km/h 51 % 0.0 mm 0.0 W/m2 CLR
22:59 18.9 °C 8.5 °C 1015.5 hPa SW 16.7 km/h 16.7 km/h 51 % 0.0 mm 0.0 W/m2 CLR
23:04 18.9 °C 8.2 °C 1015.5 hPa SSW 18.5 km/h 18.5 km/h 50 % 0.0 mm 0.0 W/m2 CLR
23:09 18.9 °C 8.5 °C 1015.5 hPa SSW 16.7 km/h 16.7 km/h 51 % 0.0 mm 0.0 W/m2 CLR
23:14 18.3 °C 8.0 °C 1015.5 hPa SW 13.0 km/h 15.1 km/h 51 % 0.0 mm 0.0 W/m2 CLR
23:19 18.3 °C 8.0 °C 1015.5 hPa SSW 14.8 km/h 14.8 km/h 51 % 0.0 mm 0.0 W/m2 CLR
23:24 18.3 °C 8.0 °C 1015.5 hPa SW 18.5 km/h 18.5 km/h 51 % 0.0 mm 0.0 W/m2 CLR
23:29 18.3 °C 8.0 °C 1015.5 hPa SW 22.2 km/h 22.2 km/h 51 % 0.0 mm 0.0 W/m2 CLR
23:34 18.3 °C 8.0 °C 1015.8 hPa SSW 18.5 km/h 18.5 km/h 51 % 0.0 mm 0.0 W/m2 CLR
23:39 18.3 °C 8.0 °C 1015.5 hPa SW 22.2 km/h 22.2 km/h 51 % 0.0 mm 0.0 W/m2 CLR
23:44 18.3 °C 8.0 °C 1015.5 hPa SSW 22.2 km/h 22.2 km/h 51 % 0.0 mm 0.0 W/m2 CLR
23:49 18.3 °C 8.0 °C 1015.5 hPa SSW 24.1 km/h 24.1 km/h 51 % 0.0 mm 0.0 W/m2 CLR
23:54 18.3 °C 8.0 °C 1015.5 hPa SW 18.5 km/h 18.5 km/h 51 % 0.0 mm 0.0 W/m2 CLR
23:59 18.3 °C 7.7 °C 1015.5 hPa SSW 16.7 km/h 16.7 km/h 50 % 0.0 mm 0.0 W/m2 CLR
Lo Temps de Massalio
Compliments of Weather Underground - 1.25 mb